Time;durP1;ratioP1;P1;durP2;ratioP2;P2;SDS_P1;SDS_P2;PMS_P1;PMS_P2;Temp;Humidity;BMP_temperature;BMP_pressure;BME280_temperature;BME280_humidity;BME280_pressure;Samples;Min_cycle;Max_cycle;Signal;HPM_P1;HPM_P2
2023/03/02 00:00:41;;;;;;;27.37;12.27;;;0.90;99.90;;;;;;5026066;28;20233;-75
2023/03/02 00:03:08;;;;;;;30.63;12.23;;;0.90;99.90;;;;;;5023908;28;20313;-74
2023/03/02 00:05:36;;;;;;;23.47;10.63;;;0.90;99.90;;;;;;5025828;28;20232;-75
2023/03/02 00:08:05;;;;;;;28.70;11.70;;;0.80;99.90;;;;;;5025577;28;20239;-75
2023/03/02 00:10:32;;;;;;;32.47;11.23;;;0.80;99.90;;;;;;5025059;28;20303;-75
2023/03/02 00:12:59;;;;;;;25.30;10.83;;;0.80;99.90;;;;;;5025545;28;20290;-75
2023/03/02 00:15:26;;;;;;;50.07;12.30;;;0.70;99.90;;;;;;5025253;28;20239;-75
2023/03/02 00:17:52;;;;;;;26.17;10.93;;;0.70;99.90;;;;;;5025306;28;20228;-75
2023/03/02 00:20:19;;;;;;;39.70;11.93;;;0.70;99.90;;;;;;5024624;28;20231;-75
2023/03/02 00:22:47;;;;;;;29.87;10.70;;;0.70;99.90;;;;;;5023518;28;20230;-74
2023/03/02 00:25:16;;;;;;;30.00;10.30;;;0.70;99.90;;;;;;5024364;28;20232;-74
2023/03/02 00:27:43;;;;;;;41.30;10.23;;;0.70;99.90;;;;;;5024948;28;20719;-75
2023/03/02 00:30:12;;;;;;;23.87;9.47;;;0.70;99.90;;;;;;5022633;28;20232;-75
2023/03/02 00:32:39;;;;;;;24.37;10.00;;;0.70;99.90;;;;;;5023607;28;20279;-75
2023/03/02 00:35:07;;;;;;;30.50;9.10;;;0.70;99.90;;;;;;5022486;28;20722;-75
2023/03/02 00:37:35;;;;;;;27.03;9.33;;;0.70;99.90;;;;;;5003936;28;20319;-75
2023/03/02 00:40:04;;;;;;;26.93;10.20;;;0.70;99.90;;;;;;5005177;28;20285;-75
2023/03/02 00:42:32;;;;;;;33.10;10.03;;;0.70;99.90;;;;;;5005021;28;20235;-75
2023/03/02 00:45:00;;;;;;;18.53;9.10;;;0.70;99.90;;;;;;5003314;28;20221;-75
2023/03/02 00:47:27;;;;;;;35.90;9.97;;;0.70;99.90;;;;;;5004588;28;20254;-75
2023/03/02 00:49:54;;;;;;;43.50;10.30;;;0.70;99.90;;;;;;5003695;28;20235;-75
2023/03/02 00:52:20;;;;;;;40.37;10.43;;;0.70;99.90;;;;;;5002796;28;20225;-75
2023/03/02 00:54:47;;;;;;;20.33;9.23;;;0.70;99.90;;;;;;5005583;28;20226;-75
2023/03/02 00:57:15;;;;;;;42.70;11.13;;;0.70;99.90;;;;;;5002907;28;20620;-75
2023/03/02 00:59:43;;;;;;;38.90;10.73;;;0.60;99.90;;;;;;5002924;28;20221;-75
2023/03/02 01:02:37;;;;;;;34.83;10.20;;;0.70;99.90;;;;;;5000258;28;20580;-75
2023/03/02 01:05:05;;;;;;;25.00;9.80;;;0.70;99.90;;;;;;5002452;28;20782;-75
2023/03/02 01:07:33;;;;;;;25.07;10.23;;;0.70;99.90;;;;;;5002765;28;20229;-75
2023/03/02 01:10:00;;;;;;;18.30;9.43;;;0.70;99.90;;;;;;5020439;28;20229;-75
2023/03/02 01:12:26;;;;;;;42.20;11.73;;;0.70;99.90;;;;;;5003713;28;20586;-75
2023/03/02 01:14:55;;;;;;;55.83;11.03;;;0.70;99.90;;;;;;5004059;28;20317;-75
2023/03/02 01:17:21;;;;;;;38.13;10.13;;;0.70;99.90;;;;;;5003697;28;20235;-75
2023/03/02 01:19:48;;;;;;;39.20;10.60;;;0.70;99.90;;;;;;5009742;28;20754;-75
2023/03/02 01:22:15;;;;;;;22.57;9.07;;;0.70;99.90;;;;;;5019903;28;20236;-75
2023/03/02 01:24:41;;;;;;;25.97;9.97;;;0.60;99.90;;;;;;5002847;28;20229;-74
2023/03/02 01:27:08;;;;;;;38.80;9.83;;;0.60;99.90;;;;;;5004083;28;20232;-74
2023/03/02 01:29:35;;;;;;;18.10;9.20;;;0.60;99.90;;;;;;5003175;28;20230;-75
2023/03/02 01:32:04;;;;;;;33.83;9.67;;;0.50;99.90;;;;;;5004316;28;20229;-75
2023/03/02 01:34:31;;;;;;;14.13;9.17;;;0.50;99.90;;;;;;4994859;28;20229;-74
2023/03/02 01:36:58;;;;;;;28.07;9.50;;;0.50;99.90;;;;;;5004189;28;20243;-74
2023/03/02 01:39:25;;;;;;;25.40;9.30;;;0.50;99.90;;;;;;5002390;28;20229;-75
2023/03/02 01:41:53;;;;;;;28.30;8.83;;;0.50;99.90;;;;;;5004701;28;20232;-75
2023/03/02 01:44:41;;;;;;;28.57;9.80;;;0.50;99.90;;;;;;5021959;28;20312;-75
2023/03/02 01:47:19;;;;;;;23.40;8.43;;;0.50;99.90;;;;;;5005910;28;20628;-75
2023/03/02 01:49:58;;;;;;;33.97;9.73;;;0.50;99.90;;;;;;5002580;28;20622;-74
2023/03/02 01:52:28;;;;;;;53.67;9.67;;;0.50;99.90;;;;;;5002255;28;20231;-74
2023/03/02 01:54:58;;;;;;;56.97;9.67;;;0.40;99.90;;;;;;5002166;28;20225;-74
2023/03/02 01:57:29;;;;;;;44.77;10.40;;;0.40;99.90;;;;;;5001978;28;20649;-74
2023/03/02 02:00:00;;;;;;;32.30;8.93;;;0.30;99.90;;;;;;5001583;28;20256;-74
2023/03/02 02:02:29;;;;;;;28.33;8.40;;;0.30;99.90;;;;;;5003225;28;20772;-74
2023/03/02 02:04:56;;;;;;;20.20;7.73;;;0.20;99.90;;;;;;5001624;28;20231;-75
2023/03/02 02:07:24;;;;;;;23.90;8.40;;;0.20;99.90;;;;;;5002320;28;20302;-75
2023/03/02 02:09:53;;;;;;;27.20;9.13;;;0.10;99.90;;;;;;5001946;28;20231;-75
2023/03/02 02:12:22;;;;;;;28.90;9.10;;;0.10;99.90;;;;;;5009981;28;20249;-75
2023/03/02 02:14:50;;;;;;;16.50;8.70;;;0.10;99.90;;;;;;5017581;28;20250;-75
2023/03/02 02:17:18;;;;;;;20.23;7.93;;;0.10;99.90;;;;;;5021936;28;20281;-75
2023/03/02 02:19:56;;;;;;;13.10;8.23;;;0.10;99.90;;;;;;5024058;28;20247;-75
2023/03/02 02:22:34;;;;;;;16.93;7.53;;;0.10;99.90;;;;;;5022008;28;20321;-75
2023/03/02 02:25:05;;;;;;;78.43;35.73;;;0.10;99.90;;;;;;5023610;28;20244;-75
2023/03/02 02:27:34;;;;;;;51.73;10.37;;;0.10;99.90;;;;;;5009611;28;20237;-75
2023/03/02 02:30:04;;;;;;;57.20;10.03;;;0.10;99.90;;;;;;5002849;28;20275;-75
2023/03/02 02:32:34;;;;;;;38.47;10.53;;;0.20;99.90;;;;;;5000611;28;20282;-75
2023/03/02 02:35:05;;;;;;;26.70;9.50;;;0.20;99.90;;;;;;5007847;28;20224;-75
2023/03/02 02:37:35;;;;;;;34.00;9.20;;;0.20;99.90;;;;;;5001616;28;20224;-75
2023/03/02 02:40:07;;;;;;;20.67;9.03;;;0.20;99.90;;;;;;4997961;28;20259;-75
2023/03/02 02:42:40;;;;;;;20.23;8.23;;;0.20;99.90;;;;;;4993869;28;20238;-75
2023/03/02 02:45:17;;;;;;;23.20;8.13;;;0.20;99.90;;;;;;5005399;28;20236;-75
2023/03/02 02:47:43;;;;;;;17.27;8.37;;;0.20;99.90;;;;;;5006881;28;20243;-76
2023/03/02 02:50:18;;;;;;;25.47;8.70;;;0.30;99.90;;;;;;5004571;28;20247;-76
2023/03/02 02:52:51;;;;;;;46.17;9.43;;;0.30;99.90;;;;;;5006197;28;20220;-75
2023/03/02 02:55:22;;;;;;;22.07;8.23;;;0.30;99.90;;;;;;5007388;28;20893;-76
2023/03/02 02:57:55;;;;;;;24.57;9.33;;;0.30;99.90;;;;;;5006319;28;20250;-76
2023/03/02 03:00:23;;;;;;;20.30;8.90;;;0.30;99.90;;;;;;5005494;28;20323;-75
2023/03/02 03:02:57;;;;;;;23.37;12.10;;;0.30;99.90;;;;;;5007078;28;20228;-74
2023/03/02 03:05:24;;;;;;;32.73;9.67;;;0.30;99.90;;;;;;5005716;28;20313;-75
2023/03/02 03:07:50;;;;;;;32.20;8.83;;;0.40;99.90;;;;;;5005269;28;20227;-75
2023/03/02 03:10:22;;;;;;;44.13;9.87;;;0.40;99.90;;;;;;5005044;28;20652;-75
2023/03/02 03:12:51;;;;;;;49.20;10.33;;;0.40;99.90;;;;;;5007163;28;20238;-75
2023/03/02 03:15:22;;;;;;;33.87;9.50;;;0.30;99.90;;;;;;5005208;28;20259;-75
2023/03/02 03:17:54;;;;;;;18.47;8.60;;;0.30;99.90;;;;;;5005676;28;20768;-75
2023/03/02 03:20:23;;;;;;;27.77;8.60;;;0.30;99.90;;;;;;5004700;28;20252;-75
2023/03/02 03:22:52;;;;;;;100.50;18.50;;;0.30;99.90;;;;;;5005599;28;20248;-75
2023/03/02 03:25:19;;;;;;;35.47;10.43;;;0.30;99.90;;;;;;5003852;28;20261;-74
2023/03/02 03:27:48;;;;;;;39.47;9.70;;;0.30;99.90;;;;;;5004775;28;20228;-74
2023/03/02 03:30:16;;;;;;;64.63;23.40;;;0.30;99.90;;;;;;5003944;28;20245;-75
2023/03/02 03:32:45;;;;;;;50.23;11.77;;;0.30;99.90;;;;;;5004705;28;20237;-75
2023/03/02 03:35:13;;;;;;;22.80;8.77;;;0.30;99.90;;;;;;5003616;28;20230;-75
2023/03/02 03:37:41;;;;;;;17.37;8.50;;;0.30;99.90;;;;;;5004267;28;20231;-76
2023/03/02 03:40:10;;;;;;;13.10;8.50;;;0.30;99.90;;;;;;5004099;28;20231;-76
2023/03/02 03:42:40;;;;;;;26.37;8.97;;;0.40;99.90;;;;;;5004776;28;20227;-76
2023/03/02 03:45:08;;;;;;;34.13;9.23;;;0.40;99.90;;;;;;5004753;28;20229;-75
2023/03/02 03:47:35;;;;;;;155.63;17.70;;;0.40;99.90;;;;;;5004696;28;20806;-76
2023/03/02 03:50:07;;;;;;;76.53;12.07;;;0.40;99.90;;;;;;5003783;28;20316;-75
2023/03/02 03:52:34;;;;;;;24.10;11.50;;;0.40;99.90;;;;;;5004559;28;20224;-75
2023/03/02 03:55:11;;;;;;;49.37;11.27;;;0.50;99.90;;;;;;5003729;28;20229;-75
2023/03/02 03:57:38;;;;;;;18.00;8.07;;;0.50;99.90;;;;;;5004250;28;20223;-75
2023/03/02 04:00:09;;;;;;;20.33;7.37;;;0.50;99.90;;;;;;5003396;28;20310;-75
2023/03/02 04:02:41;;;;;;;28.23;13.10;;;0.50;99.90;;;;;;5005830;28;20734;-75
2023/03/02 04:05:10;;;;;;;58.70;9.60;;;0.50;99.90;;;;;;5003382;28;20911;-76
2023/03/02 04:07:39;;;;;;;32.03;8.30;;;0.40;99.90;;;;;;5004313;28;20253;-76
2023/03/02 04:10:07;;;;;;;46.87;8.37;;;0.40;99.90;;;;;;5003875;28;20276;-75
2023/03/02 04:12:38;;;;;;;22.03;8.90;;;0.30;99.90;;;;;;5001497;28;20233;-75
2023/03/02 04:15:07;;;;;;;19.50;7.60;;;0.30;99.90;;;;;;5000297;28;20231;-75
2023/03/02 04:17:34;;;;;;;54.67;10.77;;;0.30;99.90;;;;;;4989374;28;20221;-74
2023/03/02 04:20:03;;;;;;;33.87;8.77;;;0.20;99.90;;;;;;5003275;28;20229;-75
2023/03/02 04:22:31;;;;;;;26.90;7.27;;;0.20;99.90;;;;;;5006070;28;20223;-74
2023/03/02 04:24:58;;;;;;;28.63;7.30;;;0.20;99.90;;;;;;5007369;28;20218;-74
2023/03/02 04:27:25;;;;;;;20.20;7.47;;;0.20;99.90;;;;;;5002508;28;20251;-74
2023/03/02 04:29:52;;;;;;;20.87;7.87;;;0.20;99.90;;;;;;5002570;28;20246;-74
2023/03/02 04:32:20;;;;;;;24.53;8.43;;;0.20;99.90;;;;;;5004026;28;20249;-75
2023/03/02 04:34:52;;;;;;;21.80;8.00;;;0.20;99.90;;;;;;5022214;28;20306;-75
2023/03/02 04:37:19;;;;;;;29.83;8.13;;;0.20;99.90;;;;;;5004318;28;20230;-75
2023/03/02 04:39:50;;;;;;;32.60;8.40;;;0.20;99.90;;;;;;5003142;28;20856;-75
2023/03/02 04:42:17;;;;;;;33.57;9.43;;;0.10;99.90;;;;;;5002452;28;20338;-75
2023/03/02 04:44:44;;;;;;;34.73;9.20;;;0.10;99.90;;;;;;5004106;28;20252;-74
2023/03/02 04:47:11;;;;;;;65.80;9.83;;;0.10;99.90;;;;;;4995090;28;20287;-75
2023/03/02 04:49:38;;;;;;;29.90;8.10;;;0.00;99.90;;;;;;5002847;28;20234;-75
2023/03/02 04:52:05;;;;;;;28.97;8.20;;;0.00;99.90;;;;;;4999897;28;20641;-74
2023/03/02 04:54:33;;;;;;;31.47;8.23;;;-0.10;99.90;;;;;;4991056;28;20298;-75
2023/03/02 04:57:01;;;;;;;38.50;9.13;;;-0.10;99.90;;;;;;5006326;28;20218;-75
2023/03/02 04:59:28;;;;;;;30.80;9.80;;;-0.10;99.90;;;;;;5003185;28;20228;-75
2023/03/02 05:01:58;;;;;;;21.07;7.93;;;-0.20;99.90;;;;;;4994756;28;20233;-75
2023/03/02 05:04:26;;;;;;;141.87;14.33;;;-0.10;99.90;;;;;;5002161;28;20600;-75
2023/03/02 05:06:53;;;;;;;19.87;8.40;;;-0.20;99.90;;;;;;4991075;28;20306;-75
2023/03/02 05:09:25;;;;;;;21.03;8.00;;;-0.10;99.90;;;;;;4994573;28;20764;-75
2023/03/02 05:11:53;;;;;;;48.87;10.37;;;-0.10;99.90;;;;;;5005378;28;20226;-75
2023/03/02 05:14:21;;;;;;;21.50;8.30;;;-0.10;99.90;;;;;;4996740;28;20221;-75
2023/03/02 05:16:48;;;;;;;22.33;8.60;;;-0.10;99.90;;;;;;5000330;28;20222;-75
2023/03/02 05:19:15;;;;;;;22.77;9.10;;;-0.10;99.90;;;;;;4998860;28;20221;-75
2023/03/02 05:21:43;;;;;;;40.57;9.73;;;0.00;99.90;;;;;;4996442;28;20251;-76
2023/03/02 05:24:10;;;;;;;39.00;10.20;;;0.00;99.90;;;;;;5009396;28;20355;-80
2023/03/02 05:26:38;;;;;;;30.03;8.70;;;0.00;99.90;;;;;;5002289;28;20280;-81
2023/03/02 05:29:05;;;;;;;15.87;8.33;;;0.00;99.90;;;;;;5013185;28;20606;-80
2023/03/02 05:31:36;;;;;;;29.53;9.07;;;0.10;99.90;;;;;;4999856;28;20301;-80
2023/03/02 05:34:05;;;;;;;32.97;9.20;;;0.10;99.90;;;;;;5000915;28;20937;-80
2023/03/02 05:36:32;;;;;;;257.50;21.87;;;0.10;99.90;;;;;;5000954;28;20227;-80
2023/03/02 05:38:59;;;;;;;91.93;12.27;;;0.10;99.90;;;;;;4996773;28;20229;-81
2023/03/02 05:41:26;;;;;;;52.33;10.30;;;0.10;99.90;;;;;;4999220;28;20238;-84
2023/03/02 05:43:53;;;;;;;114.10;14.17;;;0.10;99.90;;;;;;4996072;28;20234;-83
2023/03/02 05:46:20;;;;;;;58.33;10.70;;;0.10;99.90;;;;;;5000539;28;20316;-79
2023/03/02 05:48:48;;;;;;;54.70;10.87;;;0.10;99.90;;;;;;4994244;28;20650;-80
2023/03/02 05:51:15;;;;;;;161.87;17.70;;;0.10;99.90;;;;;;5000225;28;20225;-81
2023/03/02 05:53:42;;;;;;;123.80;14.03;;;0.10;99.90;;;;;;4998118;28;20254;-81
2023/03/02 05:56:09;;;;;;;56.13;10.40;;;0.10;99.90;;;;;;5003876;28;20851;-81
2023/03/02 05:58:36;;;;;;;422.13;32.60;;;0.10;99.90;;;;;;5002920;28;20698;-80
2023/03/02 06:01:08;;;;;;;59.97;11.27;;;0.10;99.90;;;;;;4999944;28;20239;-80
2023/03/02 06:03:35;;;;;;;37.63;10.00;;;0.10;99.90;;;;;;5013849;28;20616;-79
2023/03/02 06:06:04;;;;;;;27.50;9.53;;;0.10;99.90;;;;;;4995995;28;20783;-75
2023/03/02 06:08:31;;;;;;;40.13;10.73;;;0.10;99.90;;;;;;4996109;28;20229;-76
2023/03/02 06:10:58;;;;;;;47.83;11.43;;;0.10;99.90;;;;;;4988843;28;20228;-75
2023/03/02 06:13:24;;;;;;;43.27;11.03;;;0.20;99.90;;;;;;4994134;28;20227;-77
2023/03/02 06:15:51;;;;;;;103.67;13.70;;;0.20;99.90;;;;;;4998383;28;20229;-76
2023/03/02 06:18:18;;;;;;;38.43;10.73;;;0.20;99.90;;;;;;4999083;28;20239;-76
2023/03/02 06:20:44;;;;;;;44.00;11.03;;;0.30;99.90;;;;;;5013807;28;20220;-76
2023/03/02 06:23:12;;;;;;;25.83;10.40;;;0.20;99.90;;;;;;4997139;28;20648;-76
2023/03/02 06:25:46;;;;;;;67.33;11.93;;;0.30;99.90;;;;;;4995436;28;20223;-76
2023/03/02 06:28:14;;;;;;;32.50;10.63;;;0.30;99.90;;;;;;4996091;28;20325;-76
2023/03/02 06:30:40;;;;;;;38.10;10.57;;;0.30;99.90;;;;;;4997235;28;20225;-76
2023/03/02 06:33:07;;;;;;;78.03;13.37;;;0.30;99.90;;;;;;4995845;28;20816;-76
2023/03/02 06:35:34;;;;;;;26.23;10.10;;;0.30;99.90;;;;;;4997402;28;20260;-76
2023/03/02 06:38:01;;;;;;;53.97;11.70;;;0.30;99.90;;;;;;5001016;28;20225;-76
2023/03/02 06:40:30;;;;;;;51.60;11.03;;;0.40;99.90;;;;;;4997245;28;20230;-76
2023/03/02 06:42:59;;;;;;;44.17;9.83;;;0.40;99.90;;;;;;4989798;28;20222;-77
2023/03/02 06:45:25;;;;;;;52.30;10.67;;;0.40;99.90;;;;;;4996849;28;20242;-76
2023/03/02 06:47:52;;;;;;;35.73;10.40;;;0.40;99.90;;;;;;5004269;28;20305;-76
2023/03/02 06:50:19;;;;;;;28.23;9.43;;;0.40;99.90;;;;;;5002209;28;20291;-77
2023/03/02 06:52:46;;;;;;;35.93;10.20;;;0.40;99.90;;;;;;5001476;28;20315;-76
2023/03/02 06:55:12;;;;;;;88.20;15.23;;;0.40;99.90;;;;;;5004905;28;20226;-76
2023/03/02 06:57:41;;;;;;;41.40;11.97;;;0.40;99.90;;;;;;4995967;28;20231;-76
2023/03/02 07:00:13;;;;;;;42.50;10.77;;;0.40;99.90;;;;;;4989029;28;20222;-76
2023/03/02 07:02:39;;;;;;;62.67;10.77;;;0.40;99.90;;;;;;4986060;28;20317;-76
2023/03/02 07:05:07;;;;;;;24.17;10.30;;;0.40;99.90;;;;;;4996786;28;20688;-76
2023/03/02 07:07:33;;;;;;;50.93;11.13;;;0.40;99.90;;;;;;5005332;28;20321;-76
2023/03/02 07:10:00;;;;;;;62.73;11.33;;;0.40;99.90;;;;;;4993311;28;20260;-77
2023/03/02 07:12:27;;;;;;;39.83;10.47;;;0.40;99.90;;;;;;4992097;28;20238;-76
2023/03/02 07:14:55;;;;;;;34.40;10.40;;;0.40;99.90;;;;;;4998652;28;20237;-76
2023/03/02 07:17:21;;;;;;;26.07;8.53;;;0.40;99.90;;;;;;5002851;28;20228;-76
2023/03/02 07:19:48;;;;;;;26.87;8.77;;;0.40;99.90;;;;;;4991482;28;20232;-76
2023/03/02 07:22:15;;;;;;;76.17;11.60;;;0.40;99.90;;;;;;4995727;28;20305;-76
2023/03/02 07:24:41;;;;;;;36.23;10.57;;;0.40;99.90;;;;;;5005468;28;20669;-77
2023/03/02 07:27:08;;;;;;;20.20;9.63;;;0.40;99.90;;;;;;4996274;28;21081;-76
2023/03/02 07:29:35;;;;;;;24.90;9.37;;;0.40;99.90;;;;;;4991497;28;20661;-76
2023/03/02 07:32:03;;;;;;;29.17;10.63;;;0.40;99.90;;;;;;5008612;28;20220;-76
2023/03/02 07:34:29;;;;;;;53.60;10.93;;;0.40;99.90;;;;;;4995439;28;20250;-76
2023/03/02 07:36:56;;;;;;;23.57;9.50;;;0.50;99.90;;;;;;5002341;28;20708;-76
2023/03/02 07:39:23;;;;;;;24.40;9.87;;;0.50;99.90;;;;;;5009610;28;20339;-76
2023/03/02 07:41:50;;;;;;;21.07;9.43;;;0.60;99.90;;;;;;4992743;28;20220;-76
2023/03/02 07:44:20;;;;;;;37.00;10.47;;;0.70;99.90;;;;;;4997275;28;20284;-76
2023/03/02 07:46:47;;;;;;;43.63;10.80;;;0.70;99.90;;;;;;4998475;28;20229;-76
2023/03/02 07:49:15;;;;;;;30.53;10.33;;;0.80;99.90;;;;;;4998856;28;20226;-76
2023/03/02 07:51:41;;;;;;;90.57;15.03;;;0.80;99.90;;;;;;4998418;28;20231;-76
2023/03/02 07:54:09;;;;;;;48.30;25.80;;;0.90;99.90;;;;;;5001924;28;20223;-76
2023/03/02 07:56:35;;;;;;;40.93;15.57;;;0.90;99.90;;;;;;4995218;28;20234;-76
2023/03/02 07:59:02;;;;;;;50.23;10.67;;;0.90;99.90;;;;;;5004812;28;20227;-76
2023/03/02 08:01:29;;;;;;;47.13;23.27;;;1.00;99.90;;;;;;4998436;28;20804;-76
2023/03/02 08:03:56;;;;;;;26.00;10.30;;;1.00;99.90;;;;;;5001184;28;20229;-76
2023/03/02 08:06:24;;;;;;;44.17;10.73;;;1.00;99.90;;;;;;4995779;28;20933;-76
2023/03/02 08:08:50;;;;;;;30.70;10.37;;;1.00;99.90;;;;;;4994892;28;20237;-76
2023/03/02 08:11:18;;;;;;;32.37;9.70;;;1.00;99.90;;;;;;5000894;28;20318;-76
2023/03/02 08:13:45;;;;;;;28.90;10.50;;;1.00;99.90;;;;;;4991951;28;20308;-76
2023/03/02 08:16:14;;;;;;;33.37;10.17;;;1.10;99.90;;;;;;5005621;28;20230;-76
2023/03/02 08:18:41;;;;;;;46.67;9.57;;;1.00;99.90;;;;;;4993170;28;21326;-76
2023/03/02 08:21:12;;;;;;;38.27;9.73;;;1.00;99.90;;;;;;4997505;28;20241;-76
2023/03/02 08:23:40;;;;;;;17.60;8.73;;;1.10;99.90;;;;;;4996595;28;20226;-76
2023/03/02 08:26:07;;;;;;;31.67;9.10;;;1.10;99.90;;;;;;5004130;28;20239;-76
2023/03/02 08:28:34;;;;;;;28.97;8.97;;;1.10;99.90;;;;;;5002607;28;20235;-76
2023/03/02 08:31:02;;;;;;;16.10;9.07;;;1.10;99.90;;;;;;4996737;28;20877;-76
2023/03/02 08:33:30;;;;;;;45.10;10.83;;;1.10;99.90;;;;;;4996878;28;20222;-76
2023/03/02 08:35:58;;;;;;;25.60;9.03;;;1.20;99.90;;;;;;4996041;28;20227;-76
2023/03/02 08:38:25;;;;;;;29.80;9.80;;;1.20;99.90;;;;;;5003597;28;20319;-76
2023/03/02 08:40:54;;;;;;;19.90;9.07;;;1.20;99.90;;;;;;5001884;28;20224;-76
2023/03/02 08:43:21;;;;;;;19.97;9.20;;;1.30;99.90;;;;;;4997724;28;20230;-76
2023/03/02 08:45:50;;;;;;;27.37;12.13;;;1.30;99.90;;;;;;5007331;28;20225;-76
2023/03/02 08:48:17;;;;;;;24.37;10.53;;;1.30;99.90;;;;;;4993614;28;20233;-76
2023/03/02 08:50:44;;;;;;;21.83;9.90;;;1.30;99.90;;;;;;5005267;28;20230;-76
2023/03/02 08:53:10;;;;;;;15.57;8.37;;;1.30;99.90;;;;;;5000293;28;20228;-78
2023/03/02 08:55:37;;;;;;;14.57;8.70;;;1.30;99.90;;;;;;5001279;28;20920;-76
2023/03/02 08:58:06;;;;;;;30.07;8.80;;;1.30;99.90;;;;;;4998036;28;20322;-76
2023/03/02 09:00:32;;;;;;;21.03;7.60;;;1.30;99.90;;;;;;4998842;28;20231;-77
2023/03/02 09:03:01;;;;;;;74.47;10.83;;;1.30;99.90;;;;;;4998732;28;20422;-75
2023/03/02 09:05:27;;;;;;;16.63;8.80;;;1.30;99.90;;;;;;4996576;28;20226;-76
2023/03/02 09:07:54;;;;;;;15.50;8.30;;;1.30;99.90;;;;;;4990712;28;20700;-76
2023/03/02 09:10:21;;;;;;;13.87;8.50;;;1.30;99.90;;;;;;4999333;28;20246;-76
2023/03/02 09:12:47;;;;;;;18.93;8.53;;;1.40;99.90;;;;;;5002875;28;20237;-76
2023/03/02 09:15:15;;;;;;;14.83;8.30;;;1.50;99.90;;;;;;4993833;28;20236;-76
2023/03/02 09:17:42;;;;;;;12.97;8.10;;;1.50;99.90;;;;;;5001291;28;20869;-76
2023/03/02 09:20:10;;;;;;;19.30;8.43;;;1.60;99.90;;;;;;4996808;28;20606;-76
2023/03/02 09:22:37;;;;;;;25.43;8.30;;;1.70;99.90;;;;;;5003953;28;20253;-76
2023/03/02 09:25:04;;;;;;;18.97;8.63;;;1.70;99.90;;;;;;5004695;28;20237;-76
2023/03/02 09:27:31;;;;;;;12.33;7.67;;;1.70;99.90;;;;;;4992297;28;20253;-76
2023/03/02 09:29:57;;;;;;;14.17;8.47;;;1.80;99.90;;;;;;4991220;28;20237;-76
2023/03/02 09:32:26;;;;;;;14.57;8.07;;;1.80;99.90;;;;;;4990451;28;20669;-76
2023/03/02 09:34:52;;;;;;;11.50;7.63;;;1.90;99.90;;;;;;4992391;28;20664;-76
2023/03/02 09:37:19;;;;;;;15.87;8.03;;;1.90;99.90;;;;;;5009214;28;20734;-76
2023/03/02 09:39:46;;;;;;;13.43;8.43;;;2.00;99.90;;;;;;4999087;28;20668;-76
2023/03/02 09:42:29;;;;;;;11.60;8.07;;;2.10;99.90;;;;;;4997703;28;20315;-76
2023/03/02 09:45:14;;;;;;;11.87;7.37;;;2.10;99.90;;;;;;4993424;28;20304;-76
2023/03/02 09:47:52;;;;;;;15.63;7.70;;;2.20;99.90;;;;;;5012047;28;20235;-76
2023/03/02 09:50:28;;;;;;;14.03;8.70;;;2.30;99.90;;;;;;4993361;28;20227;-75
2023/03/02 09:53:17;;;;;;;11.47;8.03;;;2.40;99.90;;;;;;4997902;28;20610;-79
2023/03/02 09:55:47;;;;;;;14.83;8.03;;;2.40;99.90;;;;;;4996412;28;20650;-74
2023/03/02 09:58:18;;;;;;;11.93;7.60;;;2.50;99.90;;;;;;4995617;28;20306;-75
2023/03/02 10:00:46;;;;;;;11.83;8.00;;;2.50;99.90;;;;;;5002151;28;20304;-75
2023/03/02 10:03:17;;;;;;;12.60;8.93;;;2.60;99.90;;;;;;4999492;28;20236;-75
2023/03/02 10:05:46;;;;;;;11.13;7.33;;;2.70;99.90;;;;;;5002349;28;20299;-75
2023/03/02 10:08:15;;;;;;;9.77;7.53;;;2.80;99.90;;;;;;4998273;28;20246;-75
2023/03/02 10:10:45;;;;;;;11.00;8.10;;;2.80;99.90;;;;;;4999976;28;20225;-75
2023/03/02 10:13:22;;;;;;;14.50;9.30;;;2.90;99.90;;;;;;5016232;28;20229;-75
2023/03/02 10:15:58;;;;;;;14.33;8.10;;;3.00;99.90;;;;;;5000517;28;20231;-75
2023/03/02 10:18:32;;;;;;;12.03;7.63;;;3.00;99.90;;;;;;5011826;28;20778;-75
2023/03/02 10:21:03;;;;;;;16.93;9.83;;;3.00;99.90;;;;;;4999968;28;20897;-75
2023/03/02 10:23:38;;;;;;;14.90;10.93;;;3.00;99.90;;;;;;5012188;28;20232;-75
2023/03/02 10:26:19;;;;;;;13.63;9.77;;;3.10;99.90;;;;;;5007235;28;20251;-75
2023/03/02 10:28:49;;;;;;;14.63;8.57;;;3.10;99.90;;;;;;5010425;28;20231;-75
2023/03/02 10:31:24;;;;;;;11.93;8.73;;;3.10;99.90;;;;;;5001102;28;20303;-75
2023/03/02 10:33:52;;;;;;;12.63;8.73;;;3.10;99.90;;;;;;5002904;28;20239;-74
2023/03/02 10:36:23;;;;;;;12.37;8.47;;;3.10;99.90;;;;;;4997999;28;20236;-75
2023/03/02 10:38:50;;;;;;;11.50;8.00;;;3.10;99.90;;;;;;5003552;28;20243;-75
2023/03/02 10:41:22;;;;;;;12.80;8.97;;;3.10;99.90;;;;;;5005863;28;20230;-75
2023/03/02 10:43:51;;;;;;;11.03;8.10;;;3.10;99.90;;;;;;4999594;28;20251;-75
2023/03/02 10:46:18;;;;;;;12.23;8.90;;;3.20;99.90;;;;;;5004460;23;20241;-81
2023/03/02 10:49:05;;;;;;;13.20;9.10;;;3.20;99.90;;;;;;5019250;28;20227;-83
2023/03/02 10:51:34;;;;;;;12.33;7.60;;;3.20;99.90;;;;;;5008779;28;20235;-81
2023/03/02 10:54:08;;;;;;;11.43;7.60;;;3.20;99.90;;;;;;4988450;28;20229;-81
2023/03/02 10:56:58;;;;;;;11.83;8.10;;;3.20;99.90;;;;;;4967023;28;20248;-81
2023/03/02 10:59:44;;;;;;;11.17;7.10;;;3.20;99.90;;;;;;4979557;28;20658;-80
2023/03/02 11:02:22;;;;;;;12.17;8.37;;;3.30;99.90;;;;;;4984261;28;20239;-81
2023/03/02 11:04:55;;;;;;;15.23;8.70;;;3.30;99.90;;;;;;5002188;28;20222;-81
2023/03/02 11:07:23;;;;;;;12.47;7.13;;;3.30;99.90;;;;;;5004591;28;20792;-80
2023/03/02 11:09:58;;;;;;;11.63;7.33;;;3.20;99.90;;;;;;5011142;28;20249;-81
2023/03/02 11:12:25;;;;;;;9.87;7.30;;;3.10;99.90;;;;;;5003222;28;20236;-81
2023/03/02 11:15:02;;;;;;;13.83;8.53;;;3.10;99.90;;;;;;5008082;28;20250;-81
2023/03/02 11:17:32;;;;;;;11.27;7.83;;;3.00;99.90;;;;;;4993162;28;21063;-81
2023/03/02 11:20:02;;;;;;;12.20;8.33;;;3.00;99.90;;;;;;4989282;28;20228;-81
2023/03/02 11:22:38;;;;;;;12.17;8.20;;;3.10;99.90;;;;;;5005620;28;20258;-81
2023/03/02 11:25:11;;;;;;;13.80;8.80;;;3.10;99.90;;;;;;4991325;28;20597;-81
2023/03/02 11:27:44;;;;;;;13.80;8.00;;;3.20;99.90;;;;;;5003126;28;20240;-81
2023/03/02 11:30:15;;;;;;;12.17;8.27;;;3.20;99.90;;;;;;4986375;28;20233;-80
2023/03/02 11:32:49;;;;;;;12.43;8.07;;;3.20;99.90;;;;;;4981244;28;20243;-81
2023/03/02 11:35:28;;;;;;;12.90;8.20;;;3.30;99.90;;;;;;5009007;28;20230;-81
2023/03/02 11:37:56;;;;;;;13.73;9.23;;;3.30;99.90;;;;;;5001826;28;20227;-81
2023/03/02 11:40:29;;;;;;;12.83;8.40;;;3.30;99.90;;;;;;5012014;28;20998;-80
2023/03/02 11:42:58;;;;;;;13.77;10.57;;;3.40;99.90;;;;;;4998128;28;20215;-80
2023/03/02 11:45:28;;;;;;;12.93;9.33;;;3.40;99.90;;;;;;5013438;28;20259;-80
2023/03/02 11:48:04;;;;;;;12.90;7.70;;;3.50;99.90;;;;;;5013949;28;20232;-81
2023/03/02 11:50:35;;;;;;;12.50;8.37;;;3.50;99.90;;;;;;4996947;28;20879;-81
2023/03/02 11:53:06;;;;;;;11.67;8.27;;;3.60;99.90;;;;;;4979270;28;20695;-80
2023/03/02 11:55:40;;;;;;;12.63;8.20;;;3.50;99.90;;;;;;4986343;28;20227;-81
2023/03/02 11:58:07;;;;;;;11.63;7.77;;;3.50;99.90;;;;;;4983851;28;20299;-81
2023/03/02 12:00:37;;;;;;;12.60;7.73;;;3.40;99.90;;;;;;4983427;28;20333;-81
2023/03/02 12:03:05;;;;;;;13.27;9.07;;;3.40;99.90;;;;;;4967457;28;20239;-81
2023/03/02 12:05:38;;;;;;;13.27;8.73;;;3.40;99.90;;;;;;4989869;28;20236;-80
2023/03/02 12:08:07;;;;;;;13.87;9.57;;;3.50;99.90;;;;;;5001401;28;20225;-81
2023/03/02 12:10:38;;;;;;;15.67;8.40;;;3.50;99.90;;;;;;4983964;28;20315;-81
2023/03/02 12:13:24;;;;;;;16.60;10.63;;;3.60;99.90;;;;;;4983275;28;21908;-81
2023/03/02 12:15:51;;;;;;;14.00;8.97;;;3.60;99.90;;;;;;4983253;28;20388;-80
2023/03/02 12:18:42;;;;;;;14.33;8.70;;;3.60;99.90;;;;;;4977732;28;20274;-80
2023/03/02 12:21:12;;;;;;;15.33;9.97;;;3.60;99.90;;;;;;4977548;28;20227;-80
2023/03/02 12:23:53;;;;;;;13.67;9.00;;;3.70;99.90;;;;;;4981969;28;20638;-80
2023/03/02 12:26:28;;;;;;;13.77;9.57;;;3.70;99.90;;;;;;4980649;28;20229;-80
2023/03/02 12:29:02;;;;;;;14.43;8.37;;;3.70;99.90;;;;;;4988481;28;20242;-81
2023/03/02 12:31:41;;;;;;;15.93;10.27;;;3.70;99.90;;;;;;4994672;28;20228;-81
2023/03/02 12:34:25;;;;;;;13.57;8.13;;;3.70;99.90;;;;;;4971557;28;20223;-81
2023/03/02 12:36:58;;;;;;;14.13;9.20;;;3.70;99.90;;;;;;5006268;28;20613;-81
2023/03/02 12:39:37;;;;;;;14.20;8.73;;;3.70;99.90;;;;;;4972748;28;20339;-81
2023/03/02 12:42:23;;;;;;;11.80;7.03;;;3.70;99.90;;;;;;4981052;28;20231;-81
2023/03/02 12:45:00;;;;;;;12.07;6.80;;;3.70;99.90;;;;;;4992113;28;20233;-81
2023/03/02 12:47:30;;;;;;;10.80;6.57;;;3.70;99.90;;;;;;4999664;28;20692;-81
2023/03/02 12:50:00;;;;;;;10.90;6.53;;;3.80;99.90;;;;;;4974616;28;20233;-80
2023/03/02 12:52:31;;;;;;;9.63;6.30;;;3.90;99.90;;;;;;4994946;28;20228;-81
2023/03/02 12:55:12;;;;;;;10.93;7.30;;;4.00;99.90;;;;;;5014534;28;20231;-81